首页
METAR-TAF:

METAR-TAF

机场 :

Hopkinsville, 肯塔基州, 美国

纬度: 36-40N, 经度: 087-30W, 海拔: 174米

当前天气观测

该预报发布于10分钟前的16:56 UTC
风速9节,风向东南
温度 8°C
湿度 46%
气压 1030 hPa
能見度: 16.1公里
天空无云

METAR: KHOP 121656Z AUTO 14009KT 10SM CLR 08/M03 A3043 RMK AO2 SLP311 T00771035

时间: 11:06 (17:06 UTC)

预报

该预报发布于1小时和6分钟前的16:00 UTC
预报有效从12日的 16点(UTC)到 13日的 22点(UTC)
风速6节,风向南转南东
能见度10公里或以上
少量云层高于20000英尺
成为
从 13日的 05点(UTC)到 13日的 06点(UTC)
风速6节,风向南转南东
能见度10公里或以上
阴天层高于3000英尺
成为
从 13日的 11点(UTC)到 13日的 12点(UTC)
风速6节,风向
能见度10公里或以上
多云层高于1500英尺
阴天层高于2500英尺
成为
从 13日的 15点(UTC)到 13日的 16点(UTC)
风速6节,风向
能見度: 8000
阴天层高于600英尺
轻雾

TAF: KHOP 121600Z 1216/1322 15006KT 9999 FEW200 QNH3026INS BECMG 1305/1306 16006KT 9999 OVC030 QNH3015INS BECMG 1311/1312 18006KT 9999 BKN015 OVC025 QNH2989INS BECMG 1315/1316 18006KT 8000 BR OVC006 QNH2985INS TX08/1220Z TN04/1216Z

超过4000个机场的气象观测和天气预报(METAR&TAF报告)。

可查询的气象台以黄色和红色小点在地图上表示。

将鼠标移到小点上方,可查看气象台名称。

然后点击查看天气观测和预报。

如需切换地图:点击带黑十字的绿色按钮放大地图;点击带横线的绿色按钮缩小地图;或者点击绿色箭头查看邻近地区的地图。


METAR-TAF: